sensor_id;sensor_type;location;lat;lon;timestamp;P1;durP1;ratioP1;P2;durP2;ratioP2
83199;SDS011;73092;49.132;8.920;2024-03-06T00:01:51;12.20;;;6.70;;
83199;SDS011;73092;49.132;8.920;2024-03-06T00:04:16;13.20;;;8.97;;
83199;SDS011;73092;49.132;8.920;2024-03-06T00:06:42;12.07;;;8.07;;
83199;SDS011;73092;49.132;8.920;2024-03-06T00:09:07;12.80;;;6.43;;
83199;SDS011;73092;49.132;8.920;2024-03-06T00:11:33;11.18;;;6.30;;
83199;SDS011;73092;49.132;8.920;2024-03-06T00:14:00;9.07;;;6.65;;
83199;SDS011;73092;49.132;8.920;2024-03-06T00:16:27;12.90;;;5.68;;
83199;SDS011;73092;49.132;8.920;2024-03-06T00:18:53;10.32;;;5.70;;
83199;SDS011;73092;49.132;8.920;2024-03-06T00:21:18;8.97;;;5.80;;
83199;SDS011;73092;49.132;8.920;2024-03-06T00:23:43;13.30;;;7.43;;
83199;SDS011;73092;49.132;8.920;2024-03-06T00:26:11;10.50;;;7.20;;
83199;SDS011;73092;49.132;8.920;2024-03-06T00:28:37;12.30;;;7.20;;
83199;SDS011;73092;49.132;8.920;2024-03-06T00:31:06;11.25;;;7.82;;
83199;SDS011;73092;49.132;8.920;2024-03-06T00:33:32;12.13;;;7.22;;
83199;SDS011;73092;49.132;8.920;2024-03-06T00:35:57;16.00;;;7.90;;
83199;SDS011;73092;49.132;8.920;2024-03-06T00:38:23;12.90;;;7.53;;
83199;SDS011;73092;49.132;8.920;2024-03-06T00:40:48;10.43;;;6.85;;
83199;SDS011;73092;49.132;8.920;2024-03-06T00:43:14;11.55;;;6.82;;
83199;SDS011;73092;49.132;8.920;2024-03-06T00:45:39;10.02;;;6.63;;
83199;SDS011;73092;49.132;8.920;2024-03-06T00:48:05;12.87;;;6.73;;
83199;SDS011;73092;49.132;8.920;2024-03-06T00:50:30;13.52;;;6.57;;
83199;SDS011;73092;49.132;8.920;2024-03-06T00:52:55;9.93;;;6.33;;
83199;SDS011;73092;49.132;8.920;2024-03-06T00:55:21;12.23;;;7.20;;
83199;SDS011;73092;49.132;8.920;2024-03-06T00:57:46;12.50;;;6.50;;
83199;SDS011;73092;49.132;8.920;2024-03-06T01:00:12;10.37;;;7.10;;
83199;SDS011;73092;49.132;8.920;2024-03-06T01:02:38;9.13;;;6.18;;
83199;SDS011;73092;49.132;8.920;2024-03-06T01:05:03;12.47;;;6.43;;
83199;SDS011;73092;49.132;8.920;2024-03-06T01:07:29;11.65;;;6.53;;
83199;SDS011;73092;49.132;8.920;2024-03-06T01:09:55;11.77;;;6.90;;
83199;SDS011;73092;49.132;8.920;2024-03-06T01:12:22;12.43;;;6.53;;
83199;SDS011;73092;49.132;8.920;2024-03-06T01:14:48;11.23;;;6.35;;
83199;SDS011;73092;49.132;8.920;2024-03-06T01:17:13;9.20;;;6.50;;
83199;SDS011;73092;49.132;8.920;2024-03-06T01:19:39;10.40;;;6.97;;
83199;SDS011;73092;49.132;8.920;2024-03-06T01:22:04;8.53;;;5.90;;
83199;SDS011;73092;49.132;8.920;2024-03-06T01:24:29;9.98;;;6.40;;
83199;SDS011;73092;49.132;8.920;2024-03-06T01:26:55;11.30;;;6.73;;
83199;SDS011;73092;49.132;8.920;2024-03-06T01:29:20;11.80;;;6.37;;
83199;SDS011;73092;49.132;8.920;2024-03-06T01:31:45;10.53;;;7.47;;
83199;SDS011;73092;49.132;8.920;2024-03-06T01:34:11;9.95;;;6.25;;
83199;SDS011;73092;49.132;8.920;2024-03-06T01:36:37;8.38;;;5.68;;
83199;SDS011;73092;49.132;8.920;2024-03-06T01:39:02;14.23;;;7.43;;
83199;SDS011;73092;49.132;8.920;2024-03-06T01:41:28;11.45;;;7.20;;
83199;SDS011;73092;49.132;8.920;2024-03-06T01:43:53;11.83;;;6.77;;
83199;SDS011;73092;49.132;8.920;2024-03-06T01:46:18;9.52;;;6.55;;
83199;SDS011;73092;49.132;8.920;2024-03-06T01:48:44;14.43;;;8.63;;
83199;SDS011;73092;49.132;8.920;2024-03-06T01:51:10;15.07;;;8.70;;
83199;SDS011;73092;49.132;8.920;2024-03-06T01:53:36;12.05;;;8.63;;
83199;SDS011;73092;49.132;8.920;2024-03-06T01:56:03;14.52;;;8.80;;
83199;SDS011;73092;49.132;8.920;2024-03-06T01:58:29;17.13;;;9.02;;
83199;SDS011;73092;49.132;8.920;2024-03-06T02:00:55;14.20;;;7.57;;
83199;SDS011;73092;49.132;8.920;2024-03-06T02:03:22;11.63;;;8.02;;
83199;SDS011;73092;49.132;8.920;2024-03-06T02:05:50;15.32;;;7.10;;
83199;SDS011;73092;49.132;8.920;2024-03-06T02:08:16;11.27;;;6.60;;
83199;SDS011;73092;49.132;8.920;2024-03-06T02:10:43;9.18;;;6.13;;
83199;SDS011;73092;49.132;8.920;2024-03-06T02:13:09;10.18;;;7.00;;
83199;SDS011;73092;49.132;8.920;2024-03-06T02:15:35;14.50;;;6.72;;
83199;SDS011;73092;49.132;8.920;2024-03-06T02:18:04;11.82;;;6.97;;
83199;SDS011;73092;49.132;8.920;2024-03-06T02:20:30;12.13;;;6.90;;
83199;SDS011;73092;49.132;8.920;2024-03-06T02:22:55;13.17;;;7.90;;
83199;SDS011;73092;49.132;8.920;2024-03-06T02:25:20;15.60;;;6.33;;
83199;SDS011;73092;49.132;8.920;2024-03-06T02:27:46;10.67;;;6.60;;
83199;SDS011;73092;49.132;8.920;2024-03-06T02:30:13;9.88;;;6.72;;
83199;SDS011;73092;49.132;8.920;2024-03-06T02:32:38;11.15;;;5.90;;
83199;SDS011;73092;49.132;8.920;2024-03-06T02:35:04;9.63;;;6.13;;
83199;SDS011;73092;49.132;8.920;2024-03-06T02:37:33;9.80;;;6.55;;
83199;SDS011;73092;49.132;8.920;2024-03-06T02:39:59;17.95;;;7.05;;
83199;SDS011;73092;49.132;8.920;2024-03-06T02:42:24;12.88;;;6.43;;
83199;SDS011;73092;49.132;8.920;2024-03-06T02:44:51;10.50;;;7.45;;
83199;SDS011;73092;49.132;8.920;2024-03-06T02:47:16;12.53;;;7.30;;
83199;SDS011;73092;49.132;8.920;2024-03-06T02:49:42;10.53;;;7.17;;
83199;SDS011;73092;49.132;8.920;2024-03-06T02:52:07;12.33;;;7.77;;
83199;SDS011;73092;49.132;8.920;2024-03-06T02:54:32;15.20;;;7.40;;
83199;SDS011;73092;49.132;8.920;2024-03-06T02:56:58;10.23;;;6.40;;
83199;SDS011;73092;49.132;8.920;2024-03-06T02:59:23;10.83;;;7.03;;
83199;SDS011;73092;49.132;8.920;2024-03-06T03:01:49;13.45;;;6.80;;
83199;SDS011;73092;49.132;8.920;2024-03-06T03:04:14;10.07;;;6.33;;
83199;SDS011;73092;49.132;8.920;2024-03-06T03:06:40;16.35;;;7.45;;
83199;SDS011;73092;49.132;8.920;2024-03-06T03:09:05;15.20;;;6.70;;
83199;SDS011;73092;49.132;8.920;2024-03-06T03:11:30;16.90;;;7.63;;
83199;SDS011;73092;49.132;8.920;2024-03-06T03:13:57;15.38;;;7.85;;
83199;SDS011;73092;49.132;8.920;2024-03-06T03:16:22;11.40;;;7.47;;
83199;SDS011;73092;49.132;8.920;2024-03-06T03:18:49;11.85;;;7.38;;
83199;SDS011;73092;49.132;8.920;2024-03-06T03:21:15;12.35;;;7.38;;
83199;SDS011;73092;49.132;8.920;2024-03-06T03:23:40;13.27;;;7.38;;
83199;SDS011;73092;49.132;8.920;2024-03-06T03:26:06;15.90;;;8.10;;
83199;SDS011;73092;49.132;8.920;2024-03-06T03:28:32;15.38;;;8.07;;
83199;SDS011;73092;49.132;8.920;2024-03-06T03:30:58;18.97;;;8.70;;
83199;SDS011;73092;49.132;8.920;2024-03-06T03:33:23;13.55;;;8.63;;
83199;SDS011;73092;49.132;8.920;2024-03-06T03:35:48;11.87;;;8.27;;
83199;SDS011;73092;49.132;8.920;2024-03-06T03:38:14;14.97;;;7.70;;
83199;SDS011;73092;49.132;8.920;2024-03-06T03:40:39;23.03;;;9.40;;
83199;SDS011;73092;49.132;8.920;2024-03-06T03:43:04;14.57;;;8.33;;
83199;SDS011;73092;49.132;8.920;2024-03-06T03:45:33;16.10;;;8.80;;
83199;SDS011;73092;49.132;8.920;2024-03-06T03:48:00;15.23;;;9.57;;
83199;SDS011;73092;49.132;8.920;2024-03-06T03:50:27;15.05;;;9.20;;
83199;SDS011;73092;49.132;8.920;2024-03-06T03:52:54;15.27;;;8.95;;
83199;SDS011;73092;49.132;8.920;2024-03-06T03:55:19;15.35;;;9.60;;
83199;SDS011;73092;49.132;8.920;2024-03-06T03:57:45;21.20;;;10.03;;
83199;SDS011;73092;49.132;8.920;2024-03-06T04:00:10;17.50;;;9.73;;
83199;SDS011;73092;49.132;8.920;2024-03-06T04:02:36;16.60;;;9.60;;
83199;SDS011;73092;49.132;8.920;2024-03-06T04:05:02;18.60;;;10.70;;
83199;SDS011;73092;49.132;8.920;2024-03-06T04:07:28;13.70;;;9.15;;
83199;SDS011;73092;49.132;8.920;2024-03-06T04:09:53;17.43;;;9.37;;
83199;SDS011;73092;49.132;8.920;2024-03-06T04:12:18;18.93;;;10.20;;
83199;SDS011;73092;49.132;8.920;2024-03-06T04:14:44;17.40;;;9.33;;
83199;SDS011;73092;49.132;8.920;2024-03-06T04:17:10;19.00;;;11.23;;
83199;SDS011;73092;49.132;8.920;2024-03-06T04:19:35;18.57;;;11.40;;
83199;SDS011;73092;49.132;8.920;2024-03-06T04:22:01;14.53;;;9.70;;
83199;SDS011;73092;49.132;8.920;2024-03-06T04:24:27;16.55;;;9.80;;
83199;SDS011;73092;49.132;8.920;2024-03-06T04:26:52;14.87;;;10.00;;
83199;SDS011;73092;49.132;8.920;2024-03-06T04:29:18;19.13;;;10.70;;
83199;SDS011;73092;49.132;8.920;2024-03-06T04:31:43;20.67;;;10.13;;
83199;SDS011;73092;49.132;8.920;2024-03-06T04:34:08;17.35;;;9.10;;
83199;SDS011;73092;49.132;8.920;2024-03-06T04:36:34;16.92;;;10.45;;
83199;SDS011;73092;49.132;8.920;2024-03-06T04:38:59;15.63;;;9.80;;
83199;SDS011;73092;49.132;8.920;2024-03-06T04:41:25;13.05;;;8.85;;
83199;SDS011;73092;49.132;8.920;2024-03-06T04:43:50;14.88;;;9.23;;
83199;SDS011;73092;49.132;8.920;2024-03-06T04:46:17;14.18;;;9.40;;
83199;SDS011;73092;49.132;8.920;2024-03-06T04:48:42;15.88;;;9.40;;
83199;SDS011;73092;49.132;8.920;2024-03-06T04:51:07;13.83;;;9.50;;
83199;SDS011;73092;49.132;8.920;2024-03-06T04:53:34;17.52;;;9.77;;
83199;SDS011;73092;49.132;8.920;2024-03-06T04:56:00;16.23;;;8.80;;
83199;SDS011;73092;49.132;8.920;2024-03-06T04:58:26;15.73;;;10.55;;
83199;SDS011;73092;49.132;8.920;2024-03-06T05:00:51;17.33;;;10.93;;
83199;SDS011;73092;49.132;8.920;2024-03-06T05:03:16;15.70;;;9.90;;
83199;SDS011;73092;49.132;8.920;2024-03-06T05:05:42;15.07;;;10.20;;
83199;SDS011;73092;49.132;8.920;2024-03-06T05:08:07;15.80;;;10.17;;
83199;SDS011;73092;49.132;8.920;2024-03-06T05:10:34;15.98;;;9.82;;
83199;SDS011;73092;49.132;8.920;2024-03-06T05:13:00;16.73;;;10.18;;
83199;SDS011;73092;49.132;8.920;2024-03-06T05:15:25;15.97;;;10.37;;
83199;SDS011;73092;49.132;8.920;2024-03-06T05:17:51;20.23;;;11.07;;
83199;SDS011;73092;49.132;8.920;2024-03-06T05:20:16;17.70;;;10.90;;
83199;SDS011;73092;49.132;8.920;2024-03-06T05:22:42;17.73;;;9.82;;
83199;SDS011;73092;49.132;8.920;2024-03-06T05:25:08;16.97;;;9.57;;
83199;SDS011;73092;49.132;8.920;2024-03-06T05:27:33;14.85;;;10.35;;
83199;SDS011;73092;49.132;8.920;2024-03-06T05:29:58;17.45;;;10.98;;
83199;SDS011;73092;49.132;8.920;2024-03-06T05:32:25;29.50;;;11.32;;
83199;SDS011;73092;49.132;8.920;2024-03-06T05:34:51;21.27;;;11.90;;
83199;SDS011;73092;49.132;8.920;2024-03-06T05:37:16;15.93;;;10.13;;
83199;SDS011;73092;49.132;8.920;2024-03-06T05:39:42;22.38;;;10.88;;
83199;SDS011;73092;49.132;8.920;2024-03-06T05:42:08;14.77;;;10.13;;
83199;SDS011;73092;49.132;8.920;2024-03-06T05:44:34;23.87;;;11.03;;
83199;SDS011;73092;49.132;8.920;2024-03-06T05:46:59;19.27;;;11.43;;
83199;SDS011;73092;49.132;8.920;2024-03-06T05:49:26;17.83;;;11.13;;
83199;SDS011;73092;49.132;8.920;2024-03-06T05:51:52;18.08;;;9.88;;
83199;SDS011;73092;49.132;8.920;2024-03-06T05:54:19;17.65;;;10.25;;
83199;SDS011;73092;49.132;8.920;2024-03-06T05:56:47;19.73;;;11.15;;
83199;SDS011;73092;49.132;8.920;2024-03-06T05:59:13;17.45;;;10.02;;
83199;SDS011;73092;49.132;8.920;2024-03-06T06:01:38;14.87;;;10.33;;
83199;SDS011;73092;49.132;8.920;2024-03-06T06:04:04;24.83;;;11.30;;
83199;SDS011;73092;49.132;8.920;2024-03-06T06:06:29;19.10;;;12.00;;
83199;SDS011;73092;49.132;8.920;2024-03-06T06:08:55;18.08;;;12.40;;
83199;SDS011;73092;49.132;8.920;2024-03-06T06:11:20;18.67;;;11.23;;
83199;SDS011;73092;49.132;8.920;2024-03-06T06:13:45;21.70;;;10.90;;
83199;SDS011;73092;49.132;8.920;2024-03-06T06:16:11;15.27;;;10.73;;
83199;SDS011;73092;49.132;8.920;2024-03-06T06:18:37;24.92;;;12.05;;
83199;SDS011;73092;49.132;8.920;2024-03-06T06:21:02;19.07;;;12.47;;
83199;SDS011;73092;49.132;8.920;2024-03-06T06:23:32;18.25;;;11.75;;
83199;SDS011;73092;49.132;8.920;2024-03-06T06:25:57;23.00;;;10.83;;
83199;SDS011;73092;49.132;8.920;2024-03-06T06:28:23;19.08;;;10.68;;
83199;SDS011;73092;49.132;8.920;2024-03-06T06:30:48;16.80;;;10.57;;
83199;SDS011;73092;49.132;8.920;2024-03-06T06:33:13;15.50;;;10.73;;
83199;SDS011;73092;49.132;8.920;2024-03-06T06:35:39;17.03;;;10.07;;
83199;SDS011;73092;49.132;8.920;2024-03-06T06:38:04;20.37;;;11.90;;
83199;SDS011;73092;49.132;8.920;2024-03-06T06:40:30;19.65;;;9.85;;
83199;SDS011;73092;49.132;8.920;2024-03-06T06:42:55;17.95;;;10.75;;
83199;SDS011;73092;49.132;8.920;2024-03-06T06:45:21;17.43;;;10.77;;
83199;SDS011;73092;49.132;8.920;2024-03-06T06:47:49;20.05;;;12.10;;
83199;SDS011;73092;49.132;8.920;2024-03-06T06:50:16;18.40;;;11.00;;
83199;SDS011;73092;49.132;8.920;2024-03-06T06:52:41;19.15;;;11.00;;
83199;SDS011;73092;49.132;8.920;2024-03-06T06:55:07;17.08;;;11.75;;
83199;SDS011;73092;49.132;8.920;2024-03-06T06:57:34;18.27;;;10.13;;
83199;SDS011;73092;49.132;8.920;2024-03-06T07:00:00;22.73;;;11.95;;
83199;SDS011;73092;49.132;8.920;2024-03-06T07:02:26;20.33;;;11.23;;
83199;SDS011;73092;49.132;8.920;2024-03-06T07:04:52;17.48;;;10.93;;
83199;SDS011;73092;49.132;8.920;2024-03-06T07:07:18;15.87;;;10.30;;
83199;SDS011;73092;49.132;8.920;2024-03-06T07:09:43;18.40;;;10.90;;
83199;SDS011;73092;49.132;8.920;2024-03-06T07:12:09;16.17;;;10.18;;
83199;SDS011;73092;49.132;8.920;2024-03-06T07:14:34;17.65;;;10.38;;
83199;SDS011;73092;49.132;8.920;2024-03-06T07:17:00;15.00;;;9.20;;
83199;SDS011;73092;49.132;8.920;2024-03-06T07:19:25;19.87;;;10.00;;
83199;SDS011;73092;49.132;8.920;2024-03-06T07:21:50;18.27;;;10.83;;
83199;SDS011;73092;49.132;8.920;2024-03-06T07:24:17;22.63;;;10.70;;
83199;SDS011;73092;49.132;8.920;2024-03-06T07:26:43;20.92;;;11.63;;
83199;SDS011;73092;49.132;8.920;2024-03-06T07:29:08;18.85;;;11.05;;
83199;SDS011;73092;49.132;8.920;2024-03-06T07:31:39;15.77;;;9.45;;
83199;SDS011;73092;49.132;8.920;2024-03-06T07:34:06;16.92;;;9.45;;
83199;SDS011;73092;49.132;8.920;2024-03-06T07:36:33;16.45;;;9.50;;
83199;SDS011;73092;49.132;8.920;2024-03-06T07:38:59;21.08;;;10.82;;
83199;SDS011;73092;49.132;8.920;2024-03-06T07:41:25;18.67;;;9.93;;
83199;SDS011;73092;49.132;8.920;2024-03-06T07:43:50;21.27;;;10.37;;
83199;SDS011;73092;49.132;8.920;2024-03-06T07:46:16;15.87;;;9.13;;
83199;SDS011;73092;49.132;8.920;2024-03-06T07:48:42;14.95;;;9.48;;
83199;SDS011;73092;49.132;8.920;2024-03-06T07:51:11;16.25;;;9.50;;
83199;SDS011;73092;49.132;8.920;2024-03-06T07:53:37;15.48;;;9.32;;
83199;SDS011;73092;49.132;8.920;2024-03-06T07:56:03;18.93;;;10.23;;
83199;SDS011;73092;49.132;8.920;2024-03-06T07:58:28;18.38;;;9.40;;
83199;SDS011;73092;49.132;8.920;2024-03-06T08:00:54;17.42;;;9.40;;
83199;SDS011;73092;49.132;8.920;2024-03-06T08:03:21;15.85;;;9.23;;
83199;SDS011;73092;49.132;8.920;2024-03-06T08:05:49;14.13;;;8.93;;
83199;SDS011;73092;49.132;8.920;2024-03-06T08:08:16;15.13;;;9.13;;
83199;SDS011;73092;49.132;8.920;2024-03-06T08:10:41;15.48;;;9.27;;
83199;SDS011;73092;49.132;8.920;2024-03-06T08:13:06;13.23;;;8.70;;
83199;SDS011;73092;49.132;8.920;2024-03-06T08:15:32;12.77;;;8.60;;
83199;SDS011;73092;49.132;8.920;2024-03-06T08:17:57;15.40;;;8.73;;
83199;SDS011;73092;49.132;8.920;2024-03-06T08:20:22;16.50;;;9.47;;
83199;SDS011;73092;49.132;8.920;2024-03-06T08:22:48;16.70;;;9.30;;
83199;SDS011;73092;49.132;8.920;2024-03-06T08:25:14;19.25;;;8.57;;
83199;SDS011;73092;49.132;8.920;2024-03-06T08:27:40;14.77;;;8.90;;
83199;SDS011;73092;49.132;8.920;2024-03-06T08:30:07;16.85;;;9.90;;
83199;SDS011;73092;49.132;8.920;2024-03-06T08:32:33;14.10;;;8.82;;
83199;SDS011;73092;49.132;8.920;2024-03-06T08:35:10;20.17;;;9.52;;
83199;SDS011;73092;49.132;8.920;2024-03-06T08:37:37;15.65;;;9.18;;
83199;SDS011;73092;49.132;8.920;2024-03-06T08:40:03;16.90;;;9.80;;
83199;SDS011;73092;49.132;8.920;2024-03-06T08:42:29;21.50;;;9.63;;
83199;SDS011;73092;49.132;8.920;2024-03-06T08:44:54;17.42;;;10.27;;
83199;SDS011;73092;49.132;8.920;2024-03-06T08:47:20;13.00;;;7.75;;
83199;SDS011;73092;49.132;8.920;2024-03-06T08:49:45;17.03;;;10.33;;
83199;SDS011;73092;49.132;8.920;2024-03-06T08:52:11;20.77;;;11.40;;
83199;SDS011;73092;49.132;8.920;2024-03-06T08:54:36;16.75;;;10.05;;
83199;SDS011;73092;49.132;8.920;2024-03-06T08:57:02;15.52;;;9.38;;
83199;SDS011;73092;49.132;8.920;2024-03-06T08:59:28;18.95;;;11.20;;
83199;SDS011;73092;49.132;8.920;2024-03-06T09:01:54;18.65;;;10.55;;
83199;SDS011;73092;49.132;8.920;2024-03-06T09:04:23;20.33;;;10.65;;
83199;SDS011;73092;49.132;8.920;2024-03-06T09:06:49;15.77;;;8.87;;
83199;SDS011;73092;49.132;8.920;2024-03-06T09:09:14;11.20;;;6.43;;
83199;SDS011;73092;49.132;8.920;2024-03-06T09:11:43;20.77;;;10.70;;
83199;SDS011;73092;49.132;8.920;2024-03-06T09:14:09;18.45;;;10.30;;
83199;SDS011;73092;49.132;8.920;2024-03-06T09:16:35;21.45;;;10.57;;
83199;SDS011;73092;49.132;8.920;2024-03-06T09:19:00;22.30;;;11.50;;
83199;SDS011;73092;49.132;8.920;2024-03-06T09:21:25;18.87;;;10.00;;
83199;SDS011;73092;49.132;8.920;2024-03-06T09:23:51;26.30;;;9.50;;
83199;SDS011;73092;49.132;8.920;2024-03-06T09:26:16;14.97;;;10.07;;
83199;SDS011;73092;49.132;8.920;2024-03-06T09:28:42;20.25;;;10.75;;
83199;SDS011;73092;49.132;8.920;2024-03-06T09:31:07;15.65;;;10.25;;
83199;SDS011;73092;49.132;8.920;2024-03-06T09:33:33;18.25;;;11.93;;
83199;SDS011;73092;49.132;8.920;2024-03-06T09:35:58;19.55;;;11.60;;
83199;SDS011;73092;49.132;8.920;2024-03-06T09:38:24;19.67;;;11.48;;
83199;SDS011;73092;49.132;8.920;2024-03-06T09:40:50;19.48;;;11.25;;
83199;SDS011;73092;49.132;8.920;2024-03-06T09:43:16;18.80;;;11.68;;
83199;SDS011;73092;49.132;8.920;2024-03-06T09:45:44;16.73;;;10.55;;
83199;SDS011;73092;49.132;8.920;2024-03-06T09:48:13;20.67;;;10.98;;
83199;SDS011;73092;49.132;8.920;2024-03-06T09:50:38;24.10;;;11.68;;
83199;SDS011;73092;49.132;8.920;2024-03-06T09:53:10;21.42;;;12.65;;
83199;SDS011;73092;49.132;8.920;2024-03-06T09:55:39;21.52;;;12.15;;
83199;SDS011;73092;49.132;8.920;2024-03-06T09:58:07;22.45;;;13.30;;
83199;SDS011;73092;49.132;8.920;2024-03-06T10:00:33;23.17;;;12.55;;
83199;SDS011;73092;49.132;8.920;2024-03-06T10:03:02;22.27;;;12.95;;
83199;SDS011;73092;49.132;8.920;2024-03-06T10:05:30;25.52;;;12.35;;
83199;SDS011;73092;49.132;8.920;2024-03-06T10:07:58;26.73;;;14.63;;
83199;SDS011;73092;49.132;8.920;2024-03-06T10:10:24;26.98;;;15.35;;
83199;SDS011;73092;49.132;8.920;2024-03-06T10:12:50;25.35;;;15.13;;
83199;SDS011;73092;49.132;8.920;2024-03-06T10:15:15;28.33;;;16.05;;
83199;SDS011;73092;49.132;8.920;2024-03-06T10:17:41;27.30;;;16.05;;
83199;SDS011;73092;49.132;8.920;2024-03-06T10:20:27;28.50;;;15.70;;
83199;SDS011;73092;49.132;8.920;2024-03-06T10:22:53;25.13;;;13.40;;
83199;SDS011;73092;49.132;8.920;2024-03-06T10:25:22;26.60;;;15.00;;
83199;SDS011;73092;49.132;8.920;2024-03-06T10:28:08;28.48;;;15.27;;
83199;SDS011;73092;49.132;8.920;2024-03-06T10:30:35;27.65;;;16.45;;
83199;SDS011;73092;49.132;8.920;2024-03-06T10:33:03;24.92;;;14.98;;
83199;SDS011;73092;49.132;8.920;2024-03-06T10:35:30;25.65;;;14.75;;
83199;SDS011;73092;49.132;8.920;2024-03-06T10:37:56;26.83;;;15.52;;
83199;SDS011;73092;49.132;8.920;2024-03-06T10:40:22;29.33;;;16.55;;
83199;SDS011;73092;49.132;8.920;2024-03-06T10:42:47;32.78;;;18.40;;
83199;SDS011;73092;49.132;8.920;2024-03-06T10:45:13;33.25;;;19.25;;
83199;SDS011;73092;49.132;8.920;2024-03-06T10:47:45;33.65;;;20.73;;
83199;SDS011;73092;49.132;8.920;2024-03-06T10:50:12;42.85;;;22.42;;
83199;SDS011;73092;49.132;8.920;2024-03-06T10:55:05;45.30;;;22.13;;
83199;SDS011;73092;49.132;8.920;2024-03-06T10:57:32;38.15;;;19.70;;
83199;SDS011;73092;49.132;8.920;2024-03-06T10:59:58;34.92;;;18.15;;
83199;SDS011;73092;49.132;8.920;2024-03-06T11:02:25;32.10;;;18.90;;
83199;SDS011;73092;49.132;8.920;2024-03-06T11:04:53;35.95;;;19.00;;
83199;SDS011;73092;49.132;8.920;2024-03-06T11:07:18;21.48;;;12.73;;
83199;SDS011;73092;49.132;8.920;2024-03-06T11:09:44;25.88;;;15.32;;
83199;SDS011;73092;49.132;8.920;2024-03-06T11:12:13;29.92;;;16.95;;
83199;SDS011;73092;49.132;8.920;2024-03-06T11:14:57;31.42;;;19.13;;
83199;SDS011;73092;49.132;8.920;2024-03-06T11:17:25;34.50;;;19.80;;
83199;SDS011;73092;49.132;8.920;2024-03-06T11:28:23;37.28;;;19.67;;
83199;SDS011;73092;49.132;8.920;2024-03-06T11:31:02;32.22;;;19.02;;
83199;SDS011;73092;49.132;8.920;2024-03-06T11:33:35;34.03;;;18.75;;
83199;SDS011;73092;49.132;8.920;2024-03-06T11:36:14;37.30;;;19.00;;
83199;SDS011;73092;49.132;8.920;2024-03-06T11:38:42;34.75;;;19.42;;
83199;SDS011;73092;49.132;8.920;2024-03-06T11:41:07;38.25;;;21.23;;
83199;SDS011;73092;49.132;8.920;2024-03-06T11:43:41;37.83;;;20.92;;
83199;SDS011;73092;49.132;8.920;2024-03-06T11:46:08;38.28;;;21.15;;
83199;SDS011;73092;49.132;8.920;2024-03-06T11:48:37;39.72;;;20.98;;
83199;SDS011;73092;49.132;8.920;2024-03-06T11:51:03;31.63;;;19.75;;
83199;SDS011;73092;49.132;8.920;2024-03-06T11:53:29;35.08;;;17.05;;
83199;SDS011;73092;49.132;8.920;2024-03-06T11:55:55;28.50;;;16.35;;
83199;SDS011;73092;49.132;8.920;2024-03-06T11:58:21;36.92;;;19.52;;
83199;SDS011;73092;49.132;8.920;2024-03-06T12:00:50;36.83;;;18.48;;
83199;SDS011;73092;49.132;8.920;2024-03-06T12:03:15;39.85;;;21.25;;
83199;SDS011;73092;49.132;8.920;2024-03-06T12:05:42;42.00;;;22.02;;
83199;SDS011;73092;49.132;8.920;2024-03-06T12:08:09;42.50;;;21.08;;
83199;SDS011;73092;49.132;8.920;2024-03-06T12:10:37;42.10;;;22.57;;
83199;SDS011;73092;49.132;8.920;2024-03-06T12:13:07;44.95;;;23.17;;
83199;SDS011;73092;49.132;8.920;2024-03-06T12:15:32;42.20;;;23.48;;
83199;SDS011;73092;49.132;8.920;2024-03-06T12:17:58;40.00;;;23.73;;
83199;SDS011;73092;49.132;8.920;2024-03-06T12:20:24;41.30;;;22.27;;
83199;SDS011;73092;49.132;8.920;2024-03-06T12:22:51;42.05;;;23.38;;
83199;SDS011;73092;49.132;8.920;2024-03-06T12:25:20;46.20;;;24.23;;
83199;SDS011;73092;49.132;8.920;2024-03-06T12:27:47;44.08;;;19.90;;
83199;SDS011;73092;49.132;8.920;2024-03-06T12:30:17;45.90;;;23.67;;
83199;SDS011;73092;49.132;8.920;2024-03-06T12:33:04;46.42;;;24.88;;
83199;SDS011;73092;49.132;8.920;2024-03-06T12:35:29;45.45;;;22.65;;
83199;SDS011;73092;49.132;8.920;2024-03-06T12:37:55;44.17;;;23.23;;
83199;SDS011;73092;49.132;8.920;2024-03-06T12:40:21;50.10;;;24.58;;
83199;SDS011;73092;49.132;8.920;2024-03-06T12:42:47;45.33;;;25.05;;
83199;SDS011;73092;49.132;8.920;2024-03-06T12:45:22;46.65;;;24.95;;
83199;SDS011;73092;49.132;8.920;2024-03-06T12:47:47;49.22;;;25.38;;
83199;SDS011;73092;49.132;8.920;2024-03-06T12:50:15;48.78;;;25.05;;
83199;SDS011;73092;49.132;8.920;2024-03-06T12:52:41;47.70;;;24.98;;
83199;SDS011;73092;49.132;8.920;2024-03-06T12:55:06;45.63;;;23.58;;
83199;SDS011;73092;49.132;8.920;2024-03-06T12:57:33;53.50;;;25.08;;
83199;SDS011;73092;49.132;8.920;2024-03-06T12:59:59;44.67;;;25.10;;
83199;SDS011;73092;49.132;8.920;2024-03-06T13:02:24;44.72;;;24.20;;
83199;SDS011;73092;49.132;8.920;2024-03-06T13:04:50;52.63;;;24.80;;
83199;SDS011;73092;49.132;8.920;2024-03-06T13:07:15;48.63;;;24.93;;
83199;SDS011;73092;49.132;8.920;2024-03-06T13:09:41;48.97;;;24.47;;
83199;SDS011;73092;49.132;8.920;2024-03-06T13:12:06;48.22;;;23.63;;
83199;SDS011;73092;49.132;8.920;2024-03-06T13:14:32;48.78;;;25.58;;
83199;SDS011;73092;49.132;8.920;2024-03-06T13:16:57;45.50;;;23.50;;
83199;SDS011;73092;49.132;8.920;2024-03-06T13:19:23;42.90;;;22.77;;
83199;SDS011;73092;49.132;8.920;2024-03-06T13:21:48;42.60;;;23.10;;
83199;SDS011;73092;49.132;8.920;2024-03-06T13:24:14;50.92;;;23.95;;
83199;SDS011;73092;49.132;8.920;2024-03-06T13:26:39;43.20;;;23.65;;
83199;SDS011;73092;49.132;8.920;2024-03-06T13:29:06;53.85;;;25.27;;
83199;SDS011;73092;49.132;8.920;2024-03-06T13:31:34;46.30;;;22.83;;
83199;SDS011;73092;49.132;8.920;2024-03-06T13:34:00;51.30;;;23.63;;
83199;SDS011;73092;49.132;8.920;2024-03-06T13:36:26;41.35;;;20.17;;
83199;SDS011;73092;49.132;8.920;2024-03-06T13:38:51;46.83;;;22.35;;
83199;SDS011;73092;49.132;8.920;2024-03-06T13:41:17;48.00;;;23.95;;
83199;SDS011;73092;49.132;8.920;2024-03-06T13:43:43;50.63;;;23.55;;
83199;SDS011;73092;49.132;8.920;2024-03-06T13:46:08;39.10;;;18.80;;
83199;SDS011;73092;49.132;8.920;2024-03-06T13:48:34;46.78;;;23.25;;
83199;SDS011;73092;49.132;8.920;2024-03-06T13:50:59;42.63;;;22.77;;
83199;SDS011;73092;49.132;8.920;2024-03-06T13:53:25;49.75;;;23.63;;
83199;SDS011;73092;49.132;8.920;2024-03-06T13:58:17;43.73;;;20.07;;
83199;SDS011;73092;49.132;8.920;2024-03-06T14:00:43;49.10;;;22.30;;
83199;SDS011;73092;49.132;8.920;2024-03-06T14:03:09;40.40;;;22.27;;
83199;SDS011;73092;49.132;8.920;2024-03-06T14:05:37;38.63;;;20.40;;
83199;SDS011;73092;49.132;8.920;2024-03-06T14:08:05;45.63;;;22.88;;
83199;SDS011;73092;49.132;8.920;2024-03-06T14:10:31;55.38;;;25.13;;
83199;SDS011;73092;49.132;8.920;2024-03-06T14:13:00;55.67;;;23.90;;
83199;SDS011;73092;49.132;8.920;2024-03-06T14:15:26;42.65;;;22.23;;
83199;SDS011;73092;49.132;8.920;2024-03-06T14:17:52;48.00;;;24.52;;
83199;SDS011;73092;49.132;8.920;2024-03-06T14:20:20;51.30;;;25.92;;
83199;SDS011;73092;49.132;8.920;2024-03-06T14:22:46;45.88;;;22.20;;
83199;SDS011;73092;49.132;8.920;2024-03-06T14:25:12;40.33;;;21.05;;
83199;SDS011;73092;49.132;8.920;2024-03-06T14:27:37;43.67;;;21.55;;
83199;SDS011;73092;49.132;8.920;2024-03-06T14:30:04;41.35;;;22.20;;
83199;SDS011;73092;49.132;8.920;2024-03-06T14:32:32;44.85;;;21.20;;
83199;SDS011;73092;49.132;8.920;2024-03-06T14:34:57;45.20;;;21.15;;
83199;SDS011;73092;49.132;8.920;2024-03-06T14:37:23;42.97;;;20.57;;